createdAt,value
2022-08-07T00:02:36.883Z,19.40
2022-08-07T00:05:17.295Z,19.40
2022-08-07T00:07:58.159Z,19.30
2022-08-07T00:10:29.712Z,19.30
2022-08-07T00:13:09.902Z,19.30
2022-08-07T00:15:50.997Z,19.20
2022-08-07T00:18:25.154Z,19.20
2022-08-07T00:20:56.735Z,19.20
2022-08-07T00:23:25.405Z,19.20
2022-08-07T00:26:00.231Z,19.20
2022-08-07T00:28:34.385Z,19.10
2022-08-07T00:31:12.710Z,19.10
2022-08-07T00:33:47.402Z,19.10
2022-08-07T00:36:20.667Z,19.00
2022-08-07T00:38:53.076Z,19.00
2022-08-07T00:41:28.016Z,19.00
2022-08-07T00:44:02.969Z,19.00
2022-08-07T00:46:34.094Z,18.90
2022-08-07T00:49:04.306Z,18.90
2022-08-07T00:51:56.895Z,18.90
2022-08-07T00:54:22.754Z,18.80
2022-08-07T00:56:50.547Z,18.80
2022-08-07T00:59:35.193Z,18.80
2022-08-07T01:02:28.599Z,18.80
2022-08-07T01:04:59.240Z,18.80
2022-08-07T01:07:29.527Z,18.70
2022-08-07T01:10:07.152Z,18.70
2022-08-07T01:12:53.403Z,18.70
2022-08-07T01:15:35.846Z,18.60
2022-08-07T01:18:24.705Z,18.60
2022-08-07T01:21:22.449Z,18.60
2022-08-07T01:23:56.945Z,18.50
2022-08-07T01:26:27.826Z,18.50
2022-08-07T01:29:00.354Z,18.50
2022-08-07T01:31:41.705Z,18.50
2022-08-07T01:34:18.712Z,18.40
2022-08-07T01:36:57.862Z,18.40
2022-08-07T01:39:40.504Z,18.40
2022-08-07T01:42:39.624Z,18.40
2022-08-07T01:45:17.990Z,18.30
2022-08-07T01:48:18.169Z,18.30
2022-08-07T01:50:52.342Z,18.30
2022-08-07T01:54:08.553Z,18.30
2022-08-07T01:56:24.839Z,18.20
2022-08-07T01:59:08.631Z,18.20
2022-08-07T02:02:00.057Z,18.20
2022-08-07T02:04:55.670Z,18.20
2022-08-07T02:07:35.904Z,18.10
2022-08-07T02:10:26.997Z,18.10
2022-08-07T02:13:02.918Z,18.10
2022-08-07T02:15:39.082Z,18.10
2022-08-07T02:18:12.722Z,18.00
2022-08-07T02:20:43.170Z,18.00
2022-08-07T02:23:23.931Z,18.00
2022-08-07T02:26:33.149Z,18.00
2022-08-07T02:28:42.938Z,17.90
2022-08-07T02:31:28.731Z,17.90
2022-08-07T02:34:11.062Z,17.90
2022-08-07T02:36:49.593Z,17.90
2022-08-07T02:39:43.383Z,17.80
2022-08-07T02:42:20.750Z,17.80
2022-08-07T02:44:58.455Z,17.80
2022-08-07T02:47:26.983Z,17.80
2022-08-07T02:50:10.054Z,17.80
2022-08-07T02:52:49.444Z,17.70
2022-08-07T02:55:28.790Z,17.70
2022-08-07T02:58:15.888Z,17.70
2022-08-07T03:00:47.025Z,17.60
2022-08-07T03:03:23.394Z,17.60
2022-08-07T03:05:57.565Z,17.60
2022-08-07T03:08:29.486Z,17.60
2022-08-07T03:11:07.559Z,17.50
2022-08-07T03:13:49.779Z,17.60
2022-08-07T03:16:27.665Z,17.50
2022-08-07T03:19:04.920Z,17.50
2022-08-07T03:21:50.612Z,17.50
2022-08-07T03:24:33.507Z,17.50
2022-08-07T03:27:08.896Z,17.40
2022-08-07T03:29:52.226Z,17.40
2022-08-07T03:32:29.859Z,17.40
2022-08-07T03:35:17.703Z,17.40
2022-08-07T03:37:55.285Z,17.40
2022-08-07T03:40:36.191Z,17.30
2022-08-07T03:43:18.172Z,17.40
2022-08-07T03:45:54.043Z,17.30
2022-08-07T03:48:27.166Z,17.30
2022-08-07T03:51:04.744Z,17.30
2022-08-07T03:54:06.010Z,17.30
2022-08-07T03:56:36.696Z,17.20
2022-08-07T03:59:13.722Z,17.20
2022-08-07T04:01:51.249Z,17.20
2022-08-07T04:04:25.833Z,17.20
2022-08-07T04:07:02.901Z,17.10
2022-08-07T04:09:50.725Z,17.10
2022-08-07T04:12:29.069Z,17.10
2022-08-07T04:15:10.634Z,17.10
2022-08-07T04:18:58.420Z,17.10
2022-08-07T04:20:35.287Z,17.10
2022-08-07T04:23:08.128Z,17.00
2022-08-07T04:25:52.197Z,17.00
2022-08-07T04:28:29.407Z,17.00
2022-08-07T04:31:08.543Z,17.00
2022-08-07T04:33:55.138Z,17.00
2022-08-07T04:36:27.237Z,16.90
2022-08-07T04:38:58.872Z,16.90
2022-08-07T04:41:32.138Z,16.90
2022-08-07T04:44:12.655Z,16.90
2022-08-07T04:47:57.143Z,16.90
2022-08-07T04:50:10.847Z,16.90
2022-08-07T04:52:59.942Z,16.90
2022-08-07T04:58:13.927Z,16.90
2022-08-07T05:00:10.783Z,16.90
2022-08-07T05:03:59.696Z,16.90
2022-08-07T05:06:20.925Z,16.80
2022-08-07T05:09:05.024Z,16.80
2022-08-07T05:11:57.437Z,16.80
2022-08-07T05:14:54.549Z,16.80
2022-08-07T05:17:52.563Z,16.80
2022-08-07T05:20:23.998Z,16.80
2022-08-07T05:23:00.621Z,16.80
2022-08-07T05:26:11.084Z,16.80
2022-08-07T05:28:26.789Z,16.80
2022-08-07T05:31:04.141Z,16.80
2022-08-07T05:33:37.000Z,16.80
2022-08-07T05:36:12.303Z,16.80
2022-08-07T05:39:00.909Z,16.80
2022-08-07T05:42:01.538Z,16.80
2022-08-07T05:44:30.928Z,16.80
2022-08-07T05:47:18.238Z,16.80
2022-08-07T05:49:55.342Z,16.90
2022-08-07T05:52:32.475Z,16.80
2022-08-07T05:55:12.174Z,16.90
2022-08-07T05:57:49.785Z,16.90
2022-08-07T06:00:21.105Z,16.90
2022-08-07T06:03:06.227Z,16.90
2022-08-07T06:05:35.946Z,16.90
2022-08-07T06:08:31.297Z,16.90
2022-08-07T06:11:09.258Z,16.90
2022-08-07T06:14:12.256Z,16.90
2022-08-07T06:16:36.612Z,16.90
2022-08-07T06:19:17.638Z,16.90
2022-08-07T06:22:16.585Z,17.00
2022-08-07T06:24:55.589Z,16.90
2022-08-07T06:27:59.754Z,16.90
2022-08-07T06:30:24.017Z,16.90
2022-08-07T06:32:55.005Z,17.00
2022-08-07T06:35:39.019Z,17.00
2022-08-07T06:38:19.835Z,17.00
2022-08-07T06:40:58.500Z,17.00
2022-08-07T06:43:39.778Z,17.00
2022-08-07T06:46:31.490Z,17.10
2022-08-07T06:49:12.018Z,17.10
2022-08-07T06:51:52.026Z,17.10
2022-08-07T06:55:31.421Z,17.10
2022-08-07T06:57:17.877Z,17.20
2022-08-07T07:00:11.912Z,17.20
2022-08-07T07:02:53.461Z,17.20
2022-08-07T07:06:05.676Z,17.30
2022-08-07T07:08:25.559Z,17.30
2022-08-07T07:10:59.141Z,17.30
2022-08-07T07:13:58.580Z,17.40
2022-08-07T07:16:39.047Z,17.30
2022-08-07T07:19:57.540Z,17.40
2022-08-07T07:22:35.856Z,17.50
2022-08-07T07:26:31.497Z,17.50
2022-08-07T07:28:42.810Z,17.50
2022-08-07T07:31:40.005Z,17.50
2022-08-07T07:34:19.336Z,17.60
2022-08-07T07:36:54.071Z,17.60
2022-08-07T07:39:35.849Z,17.60
2022-08-07T07:42:19.828Z,17.60
2022-08-07T07:44:54.788Z,17.60
2022-08-07T07:47:27.641Z,17.60
2022-08-07T07:50:35.899Z,17.60
2022-08-07T07:52:52.437Z,17.60
2022-08-07T07:55:24.270Z,17.70
2022-08-07T07:57:58.673Z,17.70
2022-08-07T08:00:34.302Z,17.70
2022-08-07T08:04:06.258Z,17.70
2022-08-07T08:06:13.100Z,17.70
2022-08-07T08:08:44.359Z,17.80
2022-08-07T08:11:18.094Z,17.70
2022-08-07T08:14:06.800Z,17.70
2022-08-07T08:16:50.391Z,17.80
2022-08-07T08:20:18.551Z,17.90
2022-08-07T08:22:32.852Z,17.90
2022-08-07T08:25:26.791Z,17.90
2022-08-07T08:28:23.719Z,18.10
2022-08-07T08:31:16.452Z,18.10
2022-08-07T08:33:59.445Z,18.20
2022-08-07T08:36:35.015Z,18.20
2022-08-07T08:39:21.956Z,18.10
2022-08-07T08:42:12.300Z,18.10
2022-08-07T08:44:47.877Z,18.20
2022-08-07T08:47:28.551Z,18.20
2022-08-07T08:50:35.109Z,18.30
2022-08-07T08:53:33.186Z,18.30
2022-08-07T08:56:07.095Z,18.30
2022-08-07T08:59:13.553Z,18.40
2022-08-07T09:01:49.171Z,18.50
2022-08-07T09:04:30.231Z,18.50
2022-08-07T09:07:23.209Z,18.50
2022-08-07T09:10:18.168Z,18.50
2022-08-07T09:13:37.919Z,18.70
2022-08-07T09:16:40.026Z,18.50
2022-08-07T09:19:51.472Z,18.50
2022-08-07T09:24:33.899Z,18.60
2022-08-07T09:26:21.078Z,18.60
2022-08-07T09:30:01.463Z,18.70
2022-08-07T09:32:32.000Z,18.80
2022-08-07T09:36:03.066Z,18.80
2022-08-07T09:38:16.330Z,18.80
2022-08-07T09:41:19.942Z,18.90
2022-08-07T09:44:58.605Z,18.90
2022-08-07T09:48:07.558Z,18.70
2022-08-07T09:51:03.729Z,18.80
2022-08-07T09:53:57.016Z,18.90
2022-08-07T09:57:12.933Z,18.90
2022-08-07T10:00:14.765Z,19.20
2022-08-07T10:03:08.403Z,19.20
2022-08-07T10:06:30.178Z,19.40
2022-08-07T10:09:42.540Z,19.50
2022-08-07T10:12:30.983Z,19.40
2022-08-07T10:15:30.474Z,19.40
2022-08-07T10:18:36.494Z,19.50
2022-08-07T10:22:12.388Z,19.70
2022-08-07T10:24:18.443Z,19.90
2022-08-07T10:27:10.332Z,19.90
2022-08-07T10:29:52.034Z,19.90
2022-08-07T10:32:52.956Z,20.00
2022-08-07T10:35:55.324Z,20.10
2022-08-07T10:38:58.322Z,20.20
2022-08-07T10:42:01.702Z,20.40
2022-08-07T10:44:55.770Z,20.50
2022-08-07T10:47:52.969Z,20.40
2022-08-07T10:50:57.307Z,20.40
2022-08-07T10:54:00.250Z,20.40
2022-08-07T10:57:08.005Z,20.60
2022-08-07T10:59:54.151Z,20.70
2022-08-07T11:03:00.827Z,20.80
2022-08-07T11:05:51.006Z,20.90
2022-08-07T11:08:57.489Z,21.10
2022-08-07T11:11:42.780Z,21.00
2022-08-07T11:14:44.523Z,21.10
2022-08-07T11:17:43.387Z,21.20
2022-08-07T11:20:29.630Z,21.50
2022-08-07T11:23:36.390Z,21.50
2022-08-07T11:26:21.571Z,21.60
2022-08-07T11:29:41.077Z,21.60
2022-08-07T11:32:25.866Z,21.60
2022-08-07T11:38:17.563Z,21.90
2022-08-07T11:44:26.757Z,22.10
2022-08-07T11:47:13.778Z,22.20
2022-08-07T11:50:31.072Z,22.40
2022-08-07T11:53:09.087Z,22.60
2022-08-07T11:56:26.610Z,22.60
2022-08-07T12:00:12.046Z,22.60
2022-08-07T12:02:53.802Z,22.80
2022-08-07T12:05:52.336Z,23.00
2022-08-07T12:08:35.078Z,23.00
2022-08-07T12:11:23.620Z,23.10
2022-08-07T12:14:11.019Z,23.30
2022-08-07T12:17:19.981Z,23.40
2022-08-07T12:20:29.671Z,23.40
2022-08-07T12:23:10.634Z,23.50
2022-08-07T12:26:23.127Z,23.40
2022-08-07T12:29:38.376Z,23.70
2022-08-07T12:32:56.961Z,23.80
2022-08-07T12:35:36.299Z,23.80
2022-08-07T12:38:17.788Z,24.00
2022-08-07T12:41:14.173Z,24.10
2022-08-07T12:44:02.512Z,24.20
2022-08-07T12:47:10.749Z,24.20
2022-08-07T12:49:53.795Z,24.30
2022-08-07T12:52:52.356Z,24.30
2022-08-07T12:56:03.538Z,24.50
2022-08-07T12:58:56.905Z,24.50
2022-08-07T13:01:53.028Z,24.50
2022-08-07T13:05:02.344Z,24.50
2022-08-07T13:08:12.826Z,24.40
2022-08-07T13:11:24.684Z,24.60
2022-08-07T13:14:46.808Z,24.80
2022-08-07T13:17:42.471Z,24.70
2022-08-07T13:20:29.145Z,24.60
2022-08-07T13:24:01.194Z,24.30
2022-08-07T13:26:56.313Z,24.40
2022-08-07T13:30:19.389Z,24.50
2022-08-07T13:37:01.267Z,24.30
2022-08-07T13:40:35.760Z,24.40
2022-08-07T13:43:15.062Z,24.50
2022-08-07T13:46:11.577Z,24.60
2022-08-07T13:48:51.888Z,24.60
2022-08-07T13:52:04.723Z,24.80
2022-08-07T13:54:37.543Z,24.90
2022-08-07T13:57:27.210Z,25.00
2022-08-07T14:00:26.177Z,25.10
2022-08-07T14:03:11.137Z,25.30
2022-08-07T14:05:49.336Z,25.20
2022-08-07T14:08:20.397Z,25.40
2022-08-07T14:11:14.438Z,25.30
2022-08-07T14:13:58.224Z,25.40
2022-08-07T14:24:55.186Z,25.60
2022-08-07T14:28:11.843Z,25.70
2022-08-07T14:31:16.150Z,25.70
2022-08-07T14:33:54.168Z,25.70
2022-08-07T15:12:25.866Z,27.40
2022-08-07T15:15:21.207Z,27.40
2022-08-07T15:17:59.670Z,27.40
2022-08-07T15:26:35.576Z,28.00
2022-08-07T15:30:10.913Z,28.40
2022-08-07T15:32:01.779Z,28.40
2022-08-07T15:34:50.764Z,28.20
2022-08-07T15:37:29.330Z,28.40
2022-08-07T15:40:34.410Z,28.40
2022-08-07T15:43:05.357Z,28.50
2022-08-07T18:25:42.048Z,24.50
2022-08-07T18:30:05.471Z,24.40
2022-08-07T18:32:03.234Z,24.30
2022-08-07T18:42:04.065Z,24.00
2022-08-07T18:45:43.219Z,23.80
2022-08-07T18:52:53.147Z,23.60
2022-08-07T19:00:35.585Z,23.50
2022-08-07T19:06:57.842Z,23.30
2022-08-07T19:10:21.348Z,23.20
